createdAt,value
2023-03-29T00:00:00.599Z,101320.22
2023-03-29T00:02:48.964Z,101317.59
2023-03-29T00:05:36.525Z,101317.63
2023-03-29T00:08:21.983Z,101311.50
2023-03-29T00:11:07.544Z,101307.28
2023-03-29T00:13:53.186Z,101305.53
2023-03-29T00:16:38.864Z,101314.06
2023-03-29T00:19:23.627Z,101304.69
2023-03-29T00:22:08.511Z,101299.44
2023-03-29T00:24:54.392Z,101293.50
2023-03-29T00:27:40.164Z,101296.84
2023-03-29T00:30:26.366Z,101291.69
2023-03-29T00:33:12.441Z,101294.28
2023-03-29T00:35:57.470Z,101291.69
2023-03-29T00:38:42.618Z,101282.22
2023-03-29T00:41:27.665Z,101281.38
2023-03-29T00:44:51.042Z,101286.53
2023-03-29T00:47:45.438Z,101282.19
2023-03-29T00:50:41.521Z,101269.31
2023-03-29T00:53:29.248Z,101265.84
2023-03-29T00:56:22.668Z,101260.63
2023-03-29T00:59:15.932Z,101267.47
2023-03-29T01:02:07.063Z,101260.66
2023-03-29T01:04:52.291Z,101252.00
2023-03-29T01:07:53.512Z,101257.16
2023-03-29T01:10:47.822Z,101245.22
2023-03-29T01:14:08.384Z,101251.25
2023-03-29T01:16:53.247Z,101240.94
2023-03-29T01:19:43.934Z,101247.78
2023-03-29T01:22:47.209Z,101235.84
2023-03-29T01:25:55.402Z,101228.03
2023-03-29T01:28:46.698Z,101227.16
2023-03-29T01:31:37.323Z,101227.16
2023-03-29T01:34:48.140Z,101218.66
2023-03-29T01:37:49.310Z,101214.34
2023-03-29T01:40:34.661Z,101214.31
2023-03-29T01:43:26.625Z,101206.59
2023-03-29T01:46:21.567Z,101204.00
2023-03-29T01:49:21.734Z,101204.09
2023-03-29T01:52:13.613Z,101202.47
2023-03-29T01:55:07.123Z,101199.03
2023-03-29T01:57:55.507Z,101189.44
2023-03-29T02:00:42.363Z,101184.38
2023-03-29T02:03:30.770Z,101183.44
2023-03-29T02:06:20.482Z,101182.66
2023-03-29T02:09:07.017Z,101181.59
2023-03-29T02:11:53.656Z,101177.41
2023-03-29T02:14:38.868Z,101168.47
2023-03-29T02:17:26.418Z,101176.38
2023-03-29T02:20:26.051Z,101175.19
2023-03-29T02:23:21.116Z,101173.19
2023-03-29T02:26:07.012Z,101174.59
2023-03-29T02:28:52.968Z,101168.38
2023-03-29T02:32:05.929Z,101166.66
2023-03-29T02:34:58.812Z,101167.31
2023-03-29T02:37:49.986Z,101161.88
2023-03-29T02:40:37.514Z,101161.75
2023-03-29T02:43:25.882Z,101164.34
2023-03-29T02:46:13.694Z,101156.59
2023-03-29T02:48:59.730Z,101153.34
2023-03-29T02:51:47.444Z,101150.50
2023-03-29T02:54:32.593Z,101142.88
2023-03-29T02:57:18.129Z,101141.84
2023-03-29T03:00:05.253Z,101129.69
2023-03-29T03:02:51.111Z,101123.78
2023-03-29T03:05:36.089Z,101132.28
2023-03-29T03:08:21.485Z,101127.03
2023-03-29T03:11:07.040Z,101123.72
2023-03-29T03:13:51.976Z,101131.66
2023-03-29T03:16:37.596Z,101126.31
2023-03-29T03:19:22.579Z,101118.59
2023-03-29T03:22:08.111Z,101119.16
2023-03-29T03:24:53.248Z,101119.63
2023-03-29T03:27:39.823Z,101118.41
2023-03-29T03:30:25.399Z,101112.88
2023-03-29T03:33:11.406Z,101120.66
2023-03-29T03:36:04.842Z,101125.63
2023-03-29T03:38:50.899Z,101121.84
2023-03-29T03:41:36.369Z,101114.16
2023-03-29T03:44:21.459Z,101110.63
2023-03-29T03:47:06.643Z,101114.84
2023-03-29T03:49:51.979Z,101109.66
2023-03-29T03:52:37.372Z,101107.94
2023-03-29T03:55:22.725Z,101116.53
2023-03-29T03:58:08.017Z,101108.91
2023-03-29T04:00:52.824Z,101106.19
2023-03-29T04:03:39.530Z,101094.19
2023-03-29T04:06:25.311Z,101082.25
2023-03-29T04:09:10.725Z,101082.25
2023-03-29T04:11:56.615Z,101079.75
2023-03-29T04:14:41.802Z,101082.31
2023-03-29T04:17:27.148Z,101084.06
2023-03-29T04:20:12.698Z,101083.97
2023-03-29T04:22:58.116Z,101083.06
2023-03-29T04:25:43.305Z,101071.91
2023-03-29T04:28:28.494Z,101071.09
2023-03-29T04:31:14.653Z,101078.81
2023-03-29T04:34:00.402Z,101070.19
2023-03-29T04:36:46.473Z,101068.56
2023-03-29T04:39:33.853Z,101070.19
2023-03-29T04:42:19.052Z,101065.97
2023-03-29T04:45:04.816Z,101052.19
2023-03-29T04:47:50.172Z,101053.94
2023-03-29T04:50:36.479Z,101052.13
2023-03-29T04:53:22.131Z,101058.81
2023-03-29T04:56:07.925Z,101058.88
2023-03-29T04:58:52.946Z,101051.25
2023-03-29T05:01:38.291Z,101045.16
2023-03-29T05:04:24.500Z,101047.03
2023-03-29T05:07:09.384Z,101051.38
2023-03-29T05:09:54.193Z,101051.34
2023-03-29T05:12:39.320Z,101041.03
2023-03-29T05:15:24.240Z,101045.31
2023-03-29T05:18:09.512Z,101051.34
2023-03-29T05:20:55.501Z,101035.97
2023-03-29T05:23:40.672Z,101040.25
2023-03-29T05:26:26.970Z,101048.78
2023-03-29T05:29:12.217Z,101055.69
2023-03-29T05:31:57.321Z,101048.00
2023-03-29T05:34:42.096Z,101041.91
2023-03-29T05:37:26.957Z,101048.81
2023-03-29T05:40:13.015Z,101047.09
2023-03-29T05:42:59.563Z,101046.34
2023-03-29T05:45:45.083Z,101031.69
2023-03-29T05:48:30.066Z,101034.31
2023-03-29T05:51:15.376Z,101036.91
2023-03-29T05:54:00.081Z,101031.75
2023-03-29T05:56:44.904Z,101037.78
2023-03-29T05:59:29.906Z,101037.84
2023-03-29T06:02:16.337Z,101032.69
2023-03-29T06:05:01.390Z,101031.03
2023-03-29T06:07:49.650Z,101032.75
2023-03-29T06:10:36.842Z,101028.41
2023-03-29T06:13:22.847Z,101031.88
2023-03-29T06:16:12.885Z,101026.75
2023-03-29T06:18:58.453Z,101028.53
2023-03-29T06:21:43.437Z,101033.75
2023-03-29T06:24:28.705Z,101036.34
2023-03-29T06:27:14.303Z,101027.75
2023-03-29T06:30:00.491Z,101024.38
2023-03-29T06:32:46.285Z,101033.84
2023-03-29T06:35:31.642Z,101030.41
2023-03-29T06:38:19.423Z,101021.03
2023-03-29T06:41:05.860Z,101015.84
2023-03-29T06:43:51.193Z,101032.25
2023-03-29T06:46:37.569Z,101034.84
2023-03-29T06:49:24.211Z,101028.81
2023-03-29T06:52:10.051Z,101035.72
2023-03-29T06:54:55.647Z,101035.78
2023-03-29T06:57:40.570Z,101041.91
2023-03-29T07:00:28.379Z,101036.75
2023-03-29T07:03:21.036Z,101037.59
2023-03-29T07:06:10.941Z,101035.88
2023-03-29T07:08:59.939Z,101027.34
2023-03-29T07:11:46.286Z,101024.78
2023-03-29T07:14:31.545Z,101025.63
2023-03-29T07:17:16.847Z,101030.81
2023-03-29T07:20:02.458Z,101032.56
2023-03-29T07:22:48.069Z,101030.03
2023-03-29T07:25:34.394Z,101033.47
2023-03-29T07:28:19.968Z,101029.16
2023-03-29T07:31:11.259Z,101024.06
2023-03-29T07:33:56.747Z,101021.50
2023-03-29T07:36:43.988Z,101016.34
2023-03-29T07:39:28.820Z,101014.63
2023-03-29T07:42:14.184Z,101012.91
2023-03-29T07:45:00.329Z,101011.22
2023-03-29T07:47:49.090Z,101020.78
2023-03-29T07:50:34.909Z,101014.75
2023-03-29T07:53:20.091Z,101014.75
2023-03-29T07:56:06.189Z,101014.75
2023-03-29T07:58:51.619Z,100997.47
2023-03-29T08:01:36.871Z,100990.56
2023-03-29T08:04:22.577Z,101000.91
2023-03-29T08:07:08.117Z,101002.66
2023-03-29T08:09:53.104Z,101001.75
2023-03-29T08:12:38.559Z,100999.19
2023-03-29T08:15:23.446Z,100996.56
2023-03-29T08:18:08.606Z,100998.25
2023-03-29T08:20:53.347Z,100996.50
2023-03-29T08:23:39.092Z,101008.63
2023-03-29T08:26:23.937Z,101007.78
2023-03-29T08:29:09.539Z,101002.53
2023-03-29T08:31:56.541Z,101012.03
2023-03-29T08:34:41.440Z,101003.34
2023-03-29T08:37:28.685Z,101001.63
2023-03-29T08:40:21.416Z,101003.34
2023-03-29T08:43:46.694Z,101006.81
2023-03-29T08:46:44.030Z,101003.31
2023-03-29T08:49:30.319Z,100997.16
2023-03-29T08:52:56.905Z,100996.22
2023-03-29T08:55:48.859Z,100996.09
2023-03-29T08:58:35.914Z,100990.00
2023-03-29T09:01:22.888Z,100994.34
2023-03-29T09:04:13.173Z,100986.59
2023-03-29T09:06:58.519Z,100999.56
2023-03-29T09:09:44.589Z,100999.56
2023-03-29T09:12:46.452Z,101004.78
2023-03-29T09:16:01.976Z,100999.56
2023-03-29T09:19:14.660Z,100997.78
2023-03-29T09:22:40.204Z,101006.41
2023-03-29T09:25:53.353Z,100997.59
2023-03-29T09:28:51.968Z,100999.28
2023-03-29T09:31:42.615Z,100995.03
2023-03-29T09:34:45.517Z,100997.56
2023-03-29T09:37:35.514Z,100993.16
2023-03-29T09:40:30.048Z,100990.50
2023-03-29T09:43:26.647Z,100972.88
2023-03-29T09:46:43.233Z,100962.47
2023-03-29T09:49:41.981Z,100967.81
2023-03-29T09:52:27.837Z,100958.19
2023-03-29T09:55:26.307Z,100948.47
2023-03-29T09:58:18.319Z,100958.59
2023-03-29T10:01:09.913Z,100948.44
2023-03-29T10:03:58.987Z,100948.88
2023-03-29T10:06:50.152Z,100949.72
2023-03-29T10:09:38.059Z,100945.59
2023-03-29T10:12:23.225Z,100943.88
2023-03-29T10:15:26.687Z,100943.63
2023-03-29T10:18:15.271Z,100945.09
2023-03-29T10:21:03.966Z,100938.97
2023-03-29T10:23:58.529Z,100937.25
2023-03-29T10:26:43.496Z,100932.31
2023-03-29T10:29:37.966Z,100929.63
2023-03-29T10:32:25.433Z,100931.91
2023-03-29T10:35:32.156Z,100928.38
2023-03-29T10:38:21.772Z,100921.31
2023-03-29T10:41:12.559Z,100926.66
2023-03-29T10:43:58.993Z,100916.63
2023-03-29T10:46:44.164Z,100937.56
2023-03-29T10:49:29.750Z,100920.94
2023-03-29T10:52:16.442Z,100932.28
2023-03-29T10:55:02.817Z,100930.03
2023-03-29T10:57:54.414Z,100930.19
2023-03-29T11:00:57.887Z,100931.25
2023-03-29T11:04:26.219Z,100937.34
2023-03-29T11:07:29.855Z,100940.81
2023-03-29T11:10:36.962Z,100927.38
2023-03-29T11:13:40.271Z,100928.63
2023-03-29T11:16:55.380Z,100930.44
2023-03-29T11:20:17.775Z,100932.25
2023-03-29T11:23:37.417Z,100914.34
2023-03-29T11:26:29.423Z,100916.75
2023-03-29T11:29:26.983Z,100914.88
2023-03-29T11:32:25.749Z,100899.25
2023-03-29T11:35:25.933Z,100903.22
2023-03-29T11:38:16.844Z,100907.25
2023-03-29T11:41:24.421Z,100909.50
2023-03-29T11:44:17.474Z,100898.91
2023-03-29T11:47:10.782Z,100890.09
2023-03-29T11:50:06.114Z,100889.06
2023-03-29T11:53:02.315Z,100895.78
2023-03-29T11:55:50.424Z,100897.59
2023-03-29T11:58:39.934Z,100899.28
2023-03-29T12:01:34.599Z,100896.91
2023-03-29T12:04:36.150Z,100888.66
2023-03-29T12:07:50.524Z,100896.06
2023-03-29T12:11:17.284Z,100887.47
2023-03-29T12:14:09.758Z,100880.91
2023-03-29T12:17:04.574Z,100884.41
2023-03-29T12:20:02.569Z,100873.56
2023-03-29T12:22:50.872Z,100874.13
2023-03-29T12:25:58.817Z,100880.91
2023-03-29T12:29:10.347Z,100869.88
2023-03-29T12:32:21.887Z,100881.00
2023-03-29T12:35:40.145Z,100879.06
2023-03-29T12:38:30.555Z,100864.97
2023-03-29T12:41:24.271Z,100864.06
2023-03-29T12:44:15.043Z,100868.94
2023-03-29T12:47:01.735Z,100862.00
2023-03-29T12:49:47.512Z,100853.09
2023-03-29T12:52:36.914Z,100853.09
2023-03-29T12:55:52.732Z,100849.38
2023-03-29T12:58:56.446Z,100841.25
2023-03-29T13:01:57.724Z,100842.03
2023-03-29T13:04:43.143Z,100840.47
2023-03-29T13:07:32.445Z,100841.97
2023-03-29T13:10:36.721Z,100840.94
2023-03-29T13:13:29.588Z,100839.47
2023-03-29T13:16:17.277Z,100833.56
2023-03-29T13:19:46.164Z,100838.53
2023-03-29T13:23:01.964Z,100842.16
2023-03-29T13:26:03.580Z,100840.28
2023-03-29T13:29:14.091Z,100840.72
2023-03-29T13:32:38.508Z,100833.88
2023-03-29T13:36:17.782Z,100824.97
2023-03-29T13:39:07.056Z,100822.50
2023-03-29T13:41:54.190Z,100824.44
2023-03-29T13:44:46.023Z,100817.53
2023-03-29T13:47:31.066Z,100811.44
2023-03-29T13:50:29.435Z,100823.22
2023-03-29T13:53:26.404Z,100823.47
2023-03-29T13:56:23.359Z,100820.69
2023-03-29T13:59:19.597Z,100813.84
2023-03-29T14:02:06.916Z,100810.69
2023-03-29T14:04:52.417Z,100803.81
2023-03-29T14:07:41.430Z,100796.88
2023-03-29T14:10:40.114Z,100793.41
2023-03-29T14:13:25.804Z,100785.44
2023-03-29T14:16:13.036Z,100793.81
2023-03-29T14:19:21.641Z,100791.03
2023-03-29T14:22:15.381Z,100789.72
2023-03-29T14:25:12.934Z,100782.22
2023-03-29T14:27:58.130Z,100774.53
2023-03-29T14:30:47.073Z,100785.47
2023-03-29T14:33:37.882Z,100782.75
2023-03-29T14:36:25.408Z,100771.59
2023-03-29T14:39:15.869Z,100782.31
2023-03-29T14:42:02.045Z,100781.50
2023-03-29T14:44:50.073Z,100779.00
2023-03-29T14:47:37.069Z,100789.84
2023-03-29T14:50:31.462Z,100790.34
2023-03-29T14:53:20.615Z,100778.06
2023-03-29T14:56:07.529Z,100791.91
2023-03-29T14:58:57.022Z,100779.56
2023-03-29T15:01:45.058Z,100787.53
2023-03-29T15:04:36.004Z,100783.06
2023-03-29T15:07:23.596Z,100788.47
2023-03-29T15:10:18.718Z,100790.66
2023-03-29T15:13:05.011Z,100783.84
2023-03-29T15:16:00.932Z,100785.66
2023-03-29T15:18:48.927Z,100787.28
2023-03-29T15:21:35.618Z,100777.81
2023-03-29T15:24:28.187Z,100773.53
2023-03-29T15:27:19.485Z,100770.03
2023-03-29T15:30:12.938Z,100776.34
2023-03-29T15:33:14.347Z,100778.06
2023-03-29T15:36:03.080Z,100768.59
2023-03-29T15:38:49.550Z,100763.28
2023-03-29T15:41:34.319Z,100750.03
2023-03-29T15:44:26.642Z,100756.25
2023-03-29T15:47:12.528Z,100765.34
2023-03-29T15:49:58.175Z,100762.72
2023-03-29T15:52:43.022Z,100762.06
2023-03-29T15:55:29.978Z,100772.56
2023-03-29T15:58:16.890Z,100760.69
2023-03-29T16:01:34.716Z,100755.38
2023-03-29T16:04:20.938Z,100742.25
2023-03-29T16:07:11.218Z,100735.31
2023-03-29T16:09:56.548Z,100726.56
2023-03-29T16:12:41.722Z,100720.63
2023-03-29T16:15:27.147Z,100724.06
2023-03-29T16:18:12.249Z,100724.97
2023-03-29T16:20:57.779Z,100722.69
2023-03-29T16:23:44.499Z,100724.50
2023-03-29T16:26:31.702Z,100716.59
2023-03-29T16:29:17.979Z,100713.16
2023-03-29T16:32:06.244Z,100716.56
2023-03-29T16:34:53.564Z,100716.66
2023-03-29T16:37:39.739Z,100721.97
2023-03-29T16:40:24.986Z,100718.50
2023-03-29T16:43:15.913Z,100713.44
2023-03-29T16:46:01.543Z,100709.59
2023-03-29T16:48:47.038Z,100718.44
2023-03-29T16:51:32.772Z,100712.66
2023-03-29T16:54:19.937Z,100709.25
2023-03-29T16:57:07.618Z,100713.56
2023-03-29T16:59:53.385Z,100703.25
2023-03-29T17:02:38.778Z,100707.63
2023-03-29T17:05:25.170Z,100713.66
2023-03-29T17:08:10.517Z,100707.66
2023-03-29T17:10:55.768Z,100706.69
2023-03-29T17:13:41.445Z,100711.94
2023-03-29T17:16:30.695Z,100715.47
2023-03-29T17:19:15.942Z,100710.28
2023-03-29T17:22:01.856Z,100709.38
2023-03-29T17:24:46.985Z,100706.97
2023-03-29T17:27:32.148Z,100716.47
2023-03-29T17:30:20.001Z,100713.97
2023-03-29T17:33:06.488Z,100708.72
2023-03-29T17:35:53.641Z,100706.13
2023-03-29T17:38:38.922Z,100703.47
2023-03-29T17:41:24.966Z,100713.06
2023-03-29T17:44:11.062Z,100706.03
2023-03-29T17:46:56.199Z,100702.03
2023-03-29T17:49:41.365Z,100707.16
2023-03-29T17:52:26.967Z,100703.69
2023-03-29T17:55:13.869Z,100697.63
2023-03-29T17:57:59.619Z,100696.00
2023-03-29T18:00:52.408Z,100697.63
2023-03-29T18:03:39.801Z,100691.78
2023-03-29T18:06:25.917Z,100689.25
2023-03-29T18:09:13.980Z,100697.06
2023-03-29T18:12:00.106Z,100691.78
2023-03-29T18:14:46.520Z,100684.09
2023-03-29T18:17:37.639Z,100688.56
2023-03-29T18:20:25.532Z,100675.44
2023-03-29T18:23:10.246Z,100670.28
2023-03-29T18:26:05.890Z,100672.94
2023-03-29T18:28:53.702Z,100667.72
2023-03-29T18:31:39.092Z,100673.97
2023-03-29T18:34:24.791Z,100674.97
2023-03-29T18:37:14.470Z,100673.31
2023-03-29T18:40:01.814Z,100674.16
2023-03-29T18:42:49.678Z,100665.47
2023-03-29T18:45:37.270Z,100675.94
2023-03-29T18:48:24.486Z,100676.69
2023-03-29T18:51:11.466Z,100679.38
2023-03-29T18:54:01.051Z,100675.78
2023-03-29T18:56:49.043Z,100669.06
2023-03-29T18:59:38.062Z,100685.38
2023-03-29T19:02:23.894Z,100682.06
2023-03-29T19:05:10.383Z,100678.41
2023-03-29T19:07:56.261Z,100681.97
2023-03-29T19:10:41.763Z,100679.28
2023-03-29T19:13:27.498Z,100674.09
2023-03-29T19:16:12.662Z,100658.44
2023-03-29T19:18:58.005Z,100661.06
2023-03-29T19:21:44.467Z,100667.97
2023-03-29T19:24:32.287Z,100663.66
2023-03-29T19:27:17.302Z,100655.88
2023-03-29T19:30:05.692Z,100654.00
2023-03-29T19:32:51.822Z,100652.56
2023-03-29T19:35:36.903Z,100655.16
2023-03-29T19:38:22.409Z,100656.19
2023-03-29T19:41:08.251Z,100655.44
2023-03-29T19:43:53.178Z,100658.91
2023-03-29T19:46:38.630Z,100648.47
2023-03-29T19:49:24.022Z,100637.34
2023-03-29T19:52:11.858Z,100625.28
2023-03-29T19:54:57.225Z,100614.03
2023-03-29T19:57:42.454Z,100613.28
2023-03-29T20:00:29.583Z,100603.03
2023-03-29T20:03:15.554Z,100596.25
2023-03-29T20:06:02.015Z,100602.31
2023-03-29T20:08:47.486Z,100610.94
2023-03-29T20:11:33.206Z,100608.41
2023-03-29T20:14:21.369Z,100606.50
2023-03-29T20:17:08.062Z,100603.94
2023-03-29T20:19:54.095Z,100604.88
2023-03-29T20:22:42.704Z,100600.53
2023-03-29T20:25:28.613Z,100596.19
2023-03-29T20:28:13.817Z,100596.16
2023-03-29T20:31:04.950Z,100590.81
2023-03-29T20:33:50.172Z,100595.41
2023-03-29T20:36:38.669Z,100586.66
2023-03-29T20:39:31.176Z,100597.03
2023-03-29T20:42:17.223Z,100586.47
2023-03-29T20:45:02.385Z,100583.16
2023-03-29T20:47:58.663Z,100585.72
2023-03-29T20:50:47.386Z,100578.66
2023-03-29T20:53:34.537Z,100556.28
2023-03-29T20:56:20.697Z,100553.69
2023-03-29T20:59:07.496Z,100543.38
2023-03-29T21:01:52.322Z,100545.88
2023-03-29T21:04:37.775Z,100535.59
2023-03-29T21:07:22.973Z,100537.47
2023-03-29T21:10:08.092Z,100532.44
2023-03-29T21:13:00.740Z,100532.44
2023-03-29T21:15:46.990Z,100530.53
2023-03-29T21:18:31.632Z,100525.19
2023-03-29T21:21:16.486Z,100513.88
2023-03-29T21:24:02.758Z,100518.38
2023-03-29T21:26:47.661Z,100512.34
2023-03-29T21:29:32.604Z,100515.78
2023-03-29T21:32:17.568Z,100513.31
2023-03-29T21:35:03.168Z,100502.84
2023-03-29T21:37:49.876Z,100497.78
2023-03-29T21:40:38.067Z,100499.38
2023-03-29T21:43:23.293Z,100503.66
2023-03-29T21:46:09.807Z,100498.44
2023-03-29T21:48:56.646Z,100501.03
2023-03-29T21:51:41.465Z,100493.09
2023-03-29T21:54:26.716Z,100493.28
2023-03-29T21:57:11.924Z,100486.28
2023-03-29T21:59:57.207Z,100486.28
2023-03-29T22:02:42.456Z,100473.31
2023-03-29T22:05:27.784Z,100469.03
2023-03-29T22:08:12.624Z,100469.13
2023-03-29T22:10:57.717Z,100468.22
2023-03-29T22:13:43.634Z,100463.03
2023-03-29T22:16:28.615Z,100462.31
2023-03-29T22:19:13.393Z,100460.53
2023-03-29T22:22:01.247Z,100462.06
2023-03-29T22:24:46.685Z,100452.47
2023-03-29T22:27:32.279Z,100460.41
2023-03-29T22:30:17.677Z,100458.69
2023-03-29T22:33:02.833Z,100454.38
2023-03-29T22:35:50.918Z,100460.41
2023-03-29T22:38:36.228Z,100462.19
2023-03-29T22:41:24.010Z,100470.00
2023-03-29T22:44:09.600Z,100470.09
2023-03-29T22:46:55.964Z,100458.03
2023-03-29T22:49:41.631Z,100445.78
2023-03-29T22:52:26.802Z,100450.22
2023-03-29T22:55:12.553Z,100440.88
2023-03-29T22:57:57.599Z,100436.56
2023-03-29T23:00:43.508Z,100434.94
2023-03-29T23:03:28.343Z,100433.22
2023-03-29T23:06:13.300Z,100427.94
2023-03-29T23:08:58.441Z,100415.78
2023-03-29T23:11:43.878Z,100419.13
2023-03-29T23:14:29.195Z,100419.91
2023-03-29T23:17:19.537Z,100402.59
2023-03-29T23:20:05.987Z,100402.44
2023-03-29T23:22:51.310Z,100387.91
2023-03-29T23:25:36.337Z,100388.78
2023-03-29T23:28:24.702Z,100381.75
2023-03-29T23:31:13.220Z,100378.41
2023-03-29T23:33:59.299Z,100370.78
2023-03-29T23:36:44.138Z,100368.19
2023-03-29T23:39:29.485Z,100358.47
2023-03-29T23:42:14.657Z,100349.69
2023-03-29T23:45:00.026Z,100341.88
2023-03-29T23:47:45.554Z,100339.22
2023-03-29T23:50:30.281Z,100330.50
2023-03-29T23:53:16.129Z,100344.41
2023-03-29T23:56:03.799Z,100335.91
2023-03-29T23:58:49.146Z,100334.16
